Val-d'Or Airport
CYVO : rendu visible

Aérodrome :











RETROUVEZ-NOUS SUR...

 
LOGIN :

S'inscrire | Disclaimer

   EN    FR    IT 

 









Légende :    VFR   VFR Marginal   IFR   IFR Intensif   IFR Très Intensif
Visi : 
Plafond : 
>= 8 km
>= 3000ft
5 à 8 km
1000 à 3000 ft
1500m à 5 km
500 à 1000 ft
800 à 1500m
200 à 500 ft
< 800m
< 200 ft
Symboles :   Orages  Brouillard  Fortes neiges  Fortes précipitations  Vent > 20 kt






- Altitude de l'aérodrome : 1107 ft
- Code IATA : YVO


CYVO - Val-d'Or

DERNIER METAR :
  • 201600Z 15003KT 12SM BKN007 OVC014 M01/M02 A3003 RMK SF5SC3 SLP191

METARs EXPIRÉS :
  • 201500Z VRB02KT 11SM OVC006 M02/M03 A3003 RMK ST8 SLP191
  • 201400Z 32003KT 12SM OVC007 M02/M03 A3001 RMK ST8 SLP184

TAF AMD TAF CYVO
Valide du 20 à 15h jusqu'au 21 à 00h UTC


201521Z 2015/2024 VRB03KT 5SM -SN BR OVC005
TEMPO 2015/2017 P6SM NSW SCT006 OVC015
FM201700 VRB03KT P6SM BKN025
TEMPO 2017/2024 BKN020 RMK NXT FCST BY 201800Z



MET'MAP, la Météo Aéronautique d'un coup d'oeil ! - Copyright ORBIFLY Décembre 2007 - Disclaimer

ORBIFLY MET'MAP TEAM :

Programmation & Développement : Alexandra Zaïnal
Conception & Développement : Baudouin d'Aumeries
Co-Programmation & Développement : Marc-Olivier Méhu
Soutien technique & logistique : Manuel Goepfert

Contact : metmap@orbifly.com




SOURCES & CREDITS :

   NOAA       Earth
Advisory